createdAt,value
2023-05-06T00:00:03.673Z,54.13
2023-05-06T00:05:05.579Z,53.60
2023-05-06T00:10:07.438Z,53.03
2023-05-06T00:15:09.661Z,51.97
2023-05-06T00:20:11.749Z,55.22
2023-05-06T00:25:13.683Z,54.44
2023-05-06T00:30:15.282Z,54.36
2023-05-06T00:35:16.852Z,56.43
2023-05-06T00:40:18.454Z,55.33
2023-05-06T00:45:20.087Z,55.11
2023-05-06T00:50:22.423Z,54.27
2023-05-06T00:55:24.288Z,55.13
2023-05-06T01:00:26.362Z,53.54
2023-05-06T01:05:35.891Z,53.88
2023-05-06T01:10:57.652Z,55.28
2023-05-06T01:16:00.705Z,52.71
2023-05-06T01:21:05.252Z,53.05
2023-05-06T01:26:06.928Z,51.48
2023-05-06T01:31:17.766Z,53.75
2023-05-06T01:36:25.782Z,50.68
2023-05-06T01:41:28.032Z,52.35
2023-05-06T01:46:30.735Z,52.76
2023-05-06T01:51:35.653Z,53.05
2023-05-06T01:56:37.287Z,51.43
2023-05-06T02:01:39.102Z,48.57
2023-05-06T02:06:40.741Z,49.52
2023-05-06T02:11:42.380Z,50.26
2023-05-06T02:16:44.071Z,50.81
2023-05-06T02:21:45.717Z,49.70
2023-05-06T02:26:47.308Z,49.26
2023-05-06T02:31:48.870Z,48.16
2023-05-06T02:36:50.427Z,47.10
2023-05-06T02:41:52.074Z,46.81
2023-05-06T02:46:53.810Z,46.71
2023-05-06T02:51:55.490Z,47.69
2023-05-06T02:56:57.080Z,48.60
2023-05-06T03:01:58.679Z,47.76
2023-05-06T03:07:00.381Z,47.10
2023-05-06T03:12:02.463Z,47.66
2023-05-06T03:17:04.025Z,47.05
2023-05-06T03:22:05.694Z,48.99
2023-05-06T03:27:07.290Z,48.65
2023-05-06T03:32:09.108Z,47.74
2023-05-06T03:37:10.769Z,47.89
2023-05-06T03:42:12.361Z,48.99
2023-05-06T03:47:14.018Z,47.60
2023-05-06T03:52:15.733Z,47.71
2023-05-06T03:57:17.330Z,48.33
2023-05-06T04:02:21.270Z,49.59
2023-05-06T04:07:22.870Z,47.88
2023-05-06T04:12:24.701Z,47.86
2023-05-06T04:17:26.559Z,47.60
2023-05-06T04:22:28.117Z,48.57
2023-05-06T04:27:32.092Z,48.46
2023-05-06T04:32:34.311Z,48.41
2023-05-06T04:37:36.146Z,48.76
2023-05-06T04:42:38.154Z,51.52
2023-05-06T04:47:40.372Z,49.18
2023-05-06T04:52:42.027Z,48.98
2023-05-06T04:57:43.589Z,50.42
2023-05-06T05:02:45.201Z,51.03
2023-05-06T05:07:46.956Z,48.77
2023-05-06T05:12:48.560Z,51.93
2023-05-06T05:17:51.000Z,52.19
2023-05-06T05:22:52.672Z,49.54
2023-05-06T05:27:54.269Z,50.20
2023-05-06T05:32:56.296Z,50.82
2023-05-06T05:37:57.947Z,50.32
2023-05-06T05:42:59.568Z,51.53
2023-05-06T05:48:01.135Z,50.12
2023-05-06T05:53:02.711Z,50.48
2023-05-06T05:58:04.265Z,47.99
2023-05-06T06:03:06.370Z,50.59
2023-05-06T06:08:08.564Z,51.20
2023-05-06T06:13:10.137Z,51.10
2023-05-06T06:18:11.812Z,50.34
2023-05-06T06:23:13.416Z,50.76
2023-05-06T06:28:15.058Z,50.20
2023-05-06T06:33:16.653Z,49.65
2023-05-06T06:38:18.213Z,53.37
2023-05-06T06:43:20.051Z,50.23
2023-05-06T06:48:21.876Z,51.93
2023-05-06T06:53:23.705Z,53.06
2023-05-06T06:58:25.334Z,51.06
2023-05-06T07:03:26.914Z,52.48
2023-05-06T07:08:28.701Z,50.12
2023-05-06T07:13:30.263Z,52.01
2023-05-06T07:18:31.858Z,54.26
2023-05-06T07:23:33.425Z,55.15
2023-05-06T07:28:34.985Z,52.25
2023-05-06T07:33:36.628Z,51.48
2023-05-06T07:38:38.185Z,51.78
2023-05-06T07:43:39.760Z,49.92
2023-05-06T07:48:41.382Z,50.55
2023-05-06T07:53:43.042Z,51.41
2023-05-06T07:58:44.682Z,51.07
2023-05-06T08:03:46.355Z,50.27
2023-05-06T08:08:48.026Z,50.05
2023-05-06T08:13:49.657Z,50.27
2023-05-06T08:18:51.372Z,48.64
2023-05-06T08:23:52.990Z,48.15
2023-05-06T08:28:56.338Z,47.61
2023-05-06T08:33:57.874Z,49.64
2023-05-06T08:38:59.606Z,48.30
2023-05-06T08:44:03.494Z,47.52
2023-05-06T08:49:06.160Z,47.38
2023-05-06T08:54:09.549Z,46.80
2023-05-06T08:59:11.771Z,47.23
2023-05-06T09:04:13.429Z,47.79
2023-05-06T09:09:15.131Z,45.30
2023-05-06T09:14:18.017Z,45.05
2023-05-06T09:19:21.724Z,45.04
2023-05-06T09:24:24.502Z,43.29
2023-05-06T09:29:26.174Z,43.69
2023-05-06T09:34:27.846Z,44.70
2023-05-06T09:39:29.481Z,44.52
2023-05-06T09:44:31.998Z,46.22
2023-05-06T09:49:33.783Z,44.20
2023-05-06T09:54:35.929Z,44.58
2023-05-06T09:59:41.900Z,43.11
2023-05-06T10:04:45.995Z,43.10
2023-05-06T10:09:50.139Z,42.71
2023-05-06T10:14:51.829Z,42.31
2023-05-06T10:19:59.036Z,41.29
2023-05-06T10:25:08.519Z,44.21
2023-05-06T10:30:13.992Z,41.00
2023-05-06T10:35:33.915Z,42.39
2023-05-06T10:40:35.721Z,40.26
2023-05-06T10:46:10.292Z,40.98
2023-05-06T10:51:17.753Z,41.66
2023-05-06T10:56:19.401Z,40.83
2023-05-06T11:06:48.837Z,46.93
2023-05-06T11:11:53.302Z,44.12
2023-05-06T11:16:58.944Z,44.48
2023-05-06T11:22:02.632Z,42.89
2023-05-06T11:27:04.375Z,42.18
2023-05-06T11:32:21.525Z,37.98
2023-05-06T11:37:27.591Z,39.96
2023-05-06T11:42:29.293Z,38.93
2023-05-06T11:47:30.933Z,40.73
2023-05-06T11:52:32.523Z,40.84
2023-05-06T11:57:34.157Z,39.93
2023-05-06T12:02:35.877Z,40.59
2023-05-06T12:07:37.900Z,39.48
2023-05-06T12:12:39.604Z,39.60
2023-05-06T12:17:41.306Z,38.04
2023-05-06T12:22:42.988Z,37.86
2023-05-06T12:27:45.618Z,37.54
2023-05-06T12:32:57.526Z,38.27
2023-05-06T12:38:09.740Z,38.02
2023-05-06T12:43:12.499Z,36.00
2023-05-06T12:48:17.034Z,35.85
2023-05-06T12:53:32.355Z,36.45
2023-05-06T12:58:37.636Z,35.66
2023-05-06T13:03:40.991Z,35.32
2023-05-06T13:08:43.759Z,35.67
2023-05-06T13:13:45.335Z,36.51
2023-05-06T13:18:46.904Z,36.40
2023-05-06T13:23:48.727Z,36.17
2023-05-06T13:28:50.483Z,36.64
2023-05-06T13:33:52.082Z,35.95
2023-05-06T13:38:54.289Z,35.65
2023-05-06T13:43:56.097Z,35.75
2023-05-06T13:48:57.704Z,36.07
2023-05-06T13:53:59.291Z,36.71
2023-05-06T13:59:00.847Z,36.90
2023-05-06T14:04:02.483Z,35.91
2023-05-06T14:09:04.770Z,36.27
2023-05-06T14:14:06.613Z,36.36
2023-05-06T14:19:08.209Z,35.32
2023-05-06T14:24:10.870Z,36.46
2023-05-06T14:29:12.558Z,36.33
2023-05-06T14:34:14.177Z,34.95
2023-05-06T14:39:15.884Z,35.36
2023-05-06T14:44:17.467Z,34.11
2023-05-06T14:49:19.097Z,33.87
2023-05-06T14:54:20.706Z,33.67
2023-05-06T14:59:22.694Z,33.81
2023-05-06T15:04:24.470Z,33.96
2023-05-06T15:09:26.422Z,34.06
2023-05-06T15:14:28.090Z,33.92
2023-05-06T15:19:29.888Z,33.46
2023-05-06T15:24:31.955Z,35.62
2023-05-06T15:29:33.841Z,34.10
2023-05-06T15:34:35.920Z,34.28
2023-05-06T15:39:38.022Z,32.76
2023-05-06T15:44:39.733Z,33.37
2023-05-06T15:54:49.669Z,33.27
2023-05-06T15:59:51.910Z,33.93
2023-05-06T16:04:53.952Z,33.40
2023-05-06T16:09:55.776Z,33.59
2023-05-06T16:14:57.641Z,32.65
2023-05-06T16:19:59.323Z,31.83
2023-05-06T16:25:01.066Z,33.21
2023-05-06T16:30:02.816Z,33.73
2023-05-06T16:35:04.637Z,34.60
2023-05-06T16:40:08.415Z,34.71
2023-05-06T16:45:11.581Z,34.31
2023-05-06T16:50:14.149Z,33.68
2023-05-06T16:55:15.995Z,34.33
2023-05-06T17:00:18.188Z,33.99
2023-05-06T17:05:22.034Z,34.25
2023-05-06T17:10:29.152Z,33.97
2023-05-06T17:15:31.188Z,34.41
2023-05-06T17:20:40.727Z,33.52
2023-05-06T17:25:49.537Z,33.71
2023-05-06T17:30:51.442Z,34.24
2023-05-06T17:35:53.155Z,34.90
2023-05-06T17:40:54.808Z,34.54
2023-05-06T17:45:56.959Z,35.16
2023-05-06T17:51:02.862Z,36.56
2023-05-06T17:56:04.992Z,35.76
2023-05-06T18:01:06.711Z,34.92
2023-05-06T18:06:08.365Z,35.52
2023-05-06T18:11:10.050Z,36.60
2023-05-06T18:16:11.810Z,35.32
2023-05-06T18:21:13.515Z,36.38
2023-05-06T18:26:21.439Z,37.81
2023-05-06T18:31:30.096Z,37.07
2023-05-06T18:36:32.238Z,36.46
2023-05-06T18:41:33.902Z,37.14
2023-05-06T18:46:35.780Z,36.81
2023-05-06T18:51:37.450Z,35.85
2023-05-06T18:56:39.101Z,37.21
2023-05-06T19:01:40.905Z,36.88
2023-05-06T19:06:42.737Z,35.92
2023-05-06T19:11:44.494Z,36.01
2023-05-06T19:16:46.516Z,38.22
2023-05-06T19:21:48.199Z,39.02
2023-05-06T19:26:49.891Z,38.54
2023-05-06T19:31:51.513Z,36.71
2023-05-06T19:36:53.357Z,37.00
2023-05-06T19:41:55.735Z,38.87
2023-05-06T19:46:57.413Z,38.16
2023-05-06T19:51:59.362Z,37.40
2023-05-06T19:57:01.296Z,37.06
2023-05-06T20:02:03.122Z,36.72
2023-05-06T20:07:04.876Z,38.14
2023-05-06T20:12:06.995Z,38.04
2023-05-06T20:17:08.644Z,40.29
2023-05-06T20:22:10.326Z,38.88
2023-05-06T20:27:12.092Z,38.35
2023-05-06T20:32:13.794Z,38.26
2023-05-06T20:37:16.153Z,38.28
2023-05-06T20:42:17.839Z,39.29
2023-05-06T20:47:19.724Z,39.90
2023-05-06T20:52:21.889Z,39.94
2023-05-06T20:57:23.662Z,39.99
2023-05-06T21:02:26.854Z,39.50
2023-05-06T21:07:28.893Z,41.19
2023-05-06T21:12:30.480Z,42.24
2023-05-06T21:17:32.236Z,43.34
2023-05-06T21:22:34.089Z,40.77
2023-05-06T21:27:35.723Z,40.57
2023-05-06T21:32:37.493Z,39.66
2023-05-06T21:37:39.142Z,43.57
2023-05-06T21:42:40.736Z,46.25
2023-05-06T21:47:43.062Z,45.82
2023-05-06T21:52:44.739Z,48.27
2023-05-06T21:57:46.437Z,44.12
2023-05-06T22:02:48.141Z,45.75
2023-05-06T22:07:50.500Z,44.94
2023-05-06T22:12:52.138Z,45.25
2023-05-06T22:17:53.896Z,47.96
2023-05-06T22:22:56.182Z,49.45
2023-05-06T22:27:57.864Z,48.88
2023-05-06T22:32:59.602Z,48.91
2023-05-06T22:38:01.285Z,46.75
2023-05-06T22:43:03.018Z,44.69
2023-05-06T22:48:05.233Z,45.90
2023-05-06T22:53:15.177Z,46.08
2023-05-06T22:58:17.443Z,47.41
2023-05-06T23:03:19.664Z,46.31
2023-05-06T23:08:21.585Z,46.88
2023-05-06T23:13:23.286Z,47.52
2023-05-06T23:18:25.052Z,47.68
2023-05-06T23:23:26.658Z,47.61
2023-05-06T23:28:28.391Z,47.98
2023-05-06T23:33:30.031Z,47.43
2023-05-06T23:38:31.780Z,47.88
2023-05-06T23:43:33.377Z,47.01
2023-05-06T23:48:35.681Z,47.59
2023-05-06T23:53:37.384Z,47.62
2023-05-06T23:58:40.161Z,47.72
